Cordoba, Cordoba International Airport (SACO)

NameCordoba International Airport
CityCordoba
CountryArgentina
ICAOSACO
IATACOR
Altitude1604 feet
CoordinatesGoogle Map
Live Air TrafficLiveATC.net
METARSACO 230700Z VRB02KT 4000 BR NSC 06/06 Q1018 NOSIG
2024-07-23 07:00:00 Wind: North (0°) 1.03 m/s - Visibility: 4000 m - Weather: Mist - Temperature: 6 °C - Dew point: 6 °C - Humidity: 100% - Pressure: 1018 hPa

Sorry, no flights used the airport in this database.